KAL101 RKPC-RKPK
Flight info
| Callsign | KAL101 |
|---|---|
| Flight time | 0h 33m |
| Altitude | 19000 |
| Route | AKPON1E AKPON Y571 ANROD KEVOX3 |
| Aircraft | A320/M-SDE3FGHIRWY/LB1 |
Departure
| Time | 2026-05-05 11:20 |
|---|---|
| Airport | Jeju International Airport (RKPC) |
Arrival
| Time | 2026-05-05 11:53 |
|---|---|
| Airport | Gimhae International Airport (RKPK) |
| Time | Latitude | Longitude | Altitude | Speed | Heading |
|---|---|---|---|---|---|
| 2026-05-05 10:54 | 33.50780 | 126.49370 | 93 ft | 0 kts | 183° |
| 2026-05-05 11:06 | 33.50785 | 126.49370 | 92 ft | 2 kts | 183° |
| 2026-05-05 11:06 | 33.50805 | 126.49371 | 92 ft | 3 kts | 183° |
| 2026-05-05 11:06 | 33.50825 | 126.49373 | 92 ft | 3 kts | 183° |
| 2026-05-05 11:07 | 33.50846 | 126.49374 | 91 ft | 3 kts | 183° |
| 2026-05-05 11:07 | 33.50866 | 126.49375 | 91 ft | 3 kts | 183° |
| 2026-05-05 11:07 | 33.50886 | 126.49376 | 91 ft | 3 kts | 183° |
| 2026-05-05 11:07 | 33.50906 | 126.49379 | 90 ft | 3 kts | 201° |
| 2026-05-05 11:08 | 33.50922 | 126.49390 | 92 ft | 3 kts | 227° |
| 2026-05-05 11:08 | 33.50934 | 126.49409 | 92 ft | 2 kts | 238° |
| 2026-05-05 11:08 | 33.50937 | 126.49414 | 92 ft | 1 kts | 238° |
| 2026-05-05 11:12 | 33.50921 | 126.49383 | 92 ft | 7 kts | 239° |
| 2026-05-05 11:12 | 33.50887 | 126.49316 | 94 ft | 13 kts | 238° |
| 2026-05-05 11:13 | 33.50835 | 126.49216 | 91 ft | 16 kts | 239° |
| 2026-05-05 11:13 | 33.50774 | 126.49095 | 89 ft | 18 kts | 238° |
| 2026-05-05 11:13 | 33.50708 | 126.48968 | 91 ft | 14 kts | 238° |
| 2026-05-05 11:13 | 33.50726 | 126.48900 | 90 ft | 10 kts | 325° |
| 2026-05-05 11:14 | 33.50790 | 126.48852 | 89 ft | 10 kts | 316° |
| 2026-05-05 11:14 | 33.50792 | 126.48781 | 90 ft | 10 kts | 237° |
| 2026-05-05 11:14 | 33.50742 | 126.48686 | 91 ft | 16 kts | 239° |
| 2026-05-05 11:14 | 33.50676 | 126.48556 | 91 ft | 20 kts | 238° |
| 2026-05-05 11:15 | 33.50600 | 126.48410 | 91 ft | 21 kts | 238° |
| 2026-05-05 11:15 | 33.50519 | 126.48251 | 93 ft | 23 kts | 239° |
| 2026-05-05 11:15 | 33.50430 | 126.48079 | 94 ft | 25 kts | 238° |
| 2026-05-05 11:15 | 33.50334 | 126.47892 | 93 ft | 27 kts | 238° |
| 2026-05-05 11:16 | 33.50233 | 126.47693 | 94 ft | 29 kts | 238° |
| 2026-05-05 11:16 | 33.50135 | 126.47503 | 95 ft | 26 kts | 238° |
| 2026-05-05 11:16 | 33.50040 | 126.47316 | 97 ft | 26 kts | 239° |
| 2026-05-05 11:16 | 33.49962 | 126.47167 | 97 ft | 14 kts | 238° |
| 2026-05-05 11:17 | 33.49906 | 126.47059 | 97 ft | 16 kts | 238° |
| 2026-05-05 11:17 | 33.49876 | 126.46993 | 97 ft | 10 kts | 253° |
| 2026-05-05 11:17 | 33.49878 | 126.46959 | 97 ft | 9 kts | 288° |
| 2026-05-05 11:17 | 33.49882 | 126.46949 | 98 ft | 10 kts | 298° |
| 2026-05-05 11:18 | 33.49940 | 126.46901 | 97 ft | 11 kts | 337° |
| 2026-05-05 11:18 | 33.50015 | 126.46890 | 97 ft | 4 kts | 25° |
| 2026-05-05 11:18 | 33.50042 | 126.46942 | 98 ft | 9 kts | 61° |
| 2026-05-05 11:18 | 33.50065 | 126.46988 | 95 ft | 11 kts | 58° |
| 2026-05-05 11:19 | 33.50161 | 126.47176 | 96 ft | 56 kts | 58° |
| 2026-05-05 11:19 | 33.50481 | 126.47798 | 97 ft | 116 kts | 58° |
| 2026-05-05 11:19 | 33.51170 | 126.49140 | 287 ft | 155 kts | 58° |
| 2026-05-05 11:19 | 33.51550 | 126.49879 | 669 ft | 155 kts | 60° |
| 2026-05-05 11:20 | 33.52293 | 126.51344 | 1482 ft | 158 kts | 59° |
| 2026-05-05 11:20 | 33.52701 | 126.52140 | 1629 ft | 174 kts | 59° |
| 2026-05-05 11:20 | 33.53365 | 126.53443 | 1919 ft | 194 kts | 59° |
| 2026-05-05 11:20 | 33.54122 | 126.54904 | 2142 ft | 219 kts | 60° |
| 2026-05-05 11:21 | 33.54968 | 126.56543 | 2532 ft | 243 kts | 59° |
| 2026-05-05 11:21 | 33.55900 | 126.58353 | 3040 ft | 263 kts | 59° |
| 2026-05-05 11:21 | 33.56870 | 126.60249 | 3845 ft | 271 kts | 59° |
| 2026-05-05 11:21 | 33.57862 | 126.62191 | 4752 ft | 274 kts | 58° |
| 2026-05-05 11:22 | 33.58852 | 126.64142 | 5699 ft | 275 kts | 58° |
| 2026-05-05 11:22 | 33.59861 | 126.66109 | 6588 ft | 278 kts | 58° |
| 2026-05-05 11:22 | 33.60891 | 126.68095 | 7394 ft | 283 kts | 58° |
| 2026-05-05 11:22 | 33.61935 | 126.70119 | 8166 ft | 288 kts | 58° |
| 2026-05-05 11:23 | 33.62979 | 126.72154 | 8966 ft | 292 kts | 58° |
| 2026-05-05 11:23 | 33.64005 | 126.74270 | 9787 ft | 295 kts | 65° |
| 2026-05-05 11:23 | 33.64669 | 126.76618 | 10428 ft | 304 kts | 75° |
| 2026-05-05 11:23 | 33.65252 | 126.79146 | 10722 ft | 324 kts | 75° |
| 2026-05-05 11:24 | 33.65868 | 126.81822 | 11017 ft | 343 kts | 75° |
| 2026-05-05 11:24 | 33.66533 | 126.84646 | 11346 ft | 358 kts | 74° |
| 2026-05-05 11:24 | 33.67227 | 126.87543 | 11940 ft | 364 kts | 74° |
| 2026-05-05 11:24 | 33.67936 | 126.90478 | 12581 ft | 368 kts | 74° |
| 2026-05-05 11:25 | 33.68652 | 126.93446 | 13209 ft | 373 kts | 74° |
| 2026-05-05 11:25 | 33.69372 | 126.96451 | 13848 ft | 377 kts | 74° |
| 2026-05-05 11:25 | 33.70098 | 126.99491 | 14415 ft | 381 kts | 75° |
| 2026-05-05 11:25 | 33.70828 | 127.02565 | 14971 ft | 385 kts | 74° |
| 2026-05-05 11:26 | 33.71566 | 127.05666 | 15512 ft | 388 kts | 74° |
| 2026-05-05 11:26 | 33.72311 | 127.08802 | 16046 ft | 392 kts | 74° |
| 2026-05-05 11:26 | 33.73058 | 127.11964 | 16566 ft | 396 kts | 74° |
| 2026-05-05 11:26 | 33.73811 | 127.15161 | 17111 ft | 400 kts | 74° |
| 2026-05-05 11:27 | 33.74571 | 127.18388 | 17649 ft | 403 kts | 74° |
| 2026-05-05 11:27 | 33.75339 | 127.21650 | 18196 ft | 407 kts | 74° |
| 2026-05-05 11:27 | 33.76113 | 127.24940 | 18684 ft | 412 kts | 74° |
| 2026-05-05 11:27 | 33.76898 | 127.28271 | 19038 ft | 415 kts | 74° |
| 2026-05-05 11:28 | 33.77889 | 127.31532 | 19135 ft | 421 kts | 64° |
| 2026-05-05 11:28 | 33.79359 | 127.34644 | 19159 ft | 437 kts | 54° |
| 2026-05-05 11:28 | 33.81283 | 127.37514 | 19155 ft | 444 kts | 46° |
| 2026-05-05 11:28 | 33.83363 | 127.40267 | 19155 ft | 446 kts | 47° |
| 2026-05-05 11:29 | 33.85412 | 127.43010 | 19155 ft | 446 kts | 47° |
| 2026-05-05 11:29 | 33.87476 | 127.45799 | 19155 ft | 446 kts | 47° |
| 2026-05-05 11:29 | 33.89532 | 127.48596 | 19159 ft | 447 kts | 47° |
| 2026-05-05 11:29 | 33.91591 | 127.51401 | 19155 ft | 447 kts | 47° |
| 2026-05-05 11:30 | 33.93653 | 127.54199 | 19160 ft | 446 kts | 47° |
| 2026-05-05 11:30 | 33.95718 | 127.56995 | 19160 ft | 446 kts | 47° |
| 2026-05-05 11:30 | 33.97782 | 127.59789 | 19160 ft | 446 kts | 47° |
| 2026-05-05 11:30 | 33.99845 | 127.62586 | 19158 ft | 446 kts | 47° |
| 2026-05-05 11:31 | 34.01903 | 127.65387 | 19153 ft | 446 kts | 47° |
| 2026-05-05 11:31 | 34.03959 | 127.68187 | 19154 ft | 446 kts | 47° |
| 2026-05-05 11:31 | 34.06014 | 127.70986 | 19157 ft | 446 kts | 47° |
| 2026-05-05 11:31 | 34.08070 | 127.73781 | 19152 ft | 446 kts | 47° |
| 2026-05-05 11:32 | 34.10131 | 127.76577 | 19145 ft | 446 kts | 47° |
| 2026-05-05 11:32 | 34.12192 | 127.79379 | 19142 ft | 446 kts | 47° |
| 2026-05-05 11:32 | 34.14249 | 127.82184 | 19147 ft | 446 kts | 47° |
| 2026-05-05 11:32 | 34.16306 | 127.84994 | 19144 ft | 447 kts | 47° |
| 2026-05-05 11:33 | 34.18361 | 127.87803 | 19156 ft | 446 kts | 48° |
| 2026-05-05 11:33 | 34.20415 | 127.90615 | 19159 ft | 446 kts | 48° |
| 2026-05-05 11:33 | 34.22453 | 127.93406 | 19022 ft | 436 kts | 48° |
| 2026-05-05 11:33 | 34.24424 | 127.96111 | 18782 ft | 423 kts | 48° |
| 2026-05-05 11:34 | 34.26343 | 127.98747 | 18551 ft | 414 kts | 48° |
| 2026-05-05 11:34 | 34.28236 | 128.01345 | 18299 ft | 411 kts | 48° |
| 2026-05-05 11:34 | 34.30118 | 128.03930 | 18033 ft | 409 kts | 48° |
| 2026-05-05 11:34 | 34.31991 | 128.06507 | 17774 ft | 406 kts | 48° |
| 2026-05-05 11:35 | 34.33852 | 128.09067 | 17508 ft | 404 kts | 48° |
| 2026-05-05 11:35 | 34.35706 | 128.11611 | 17252 ft | 402 kts | 48° |
| 2026-05-05 11:35 | 34.37548 | 128.14151 | 16994 ft | 401 kts | 49° |
| 2026-05-05 11:35 | 34.39381 | 128.16683 | 16738 ft | 399 kts | 49° |
| 2026-05-05 11:36 | 34.41207 | 128.19202 | 16481 ft | 397 kts | 49° |
| 2026-05-05 11:36 | 34.43033 | 128.21720 | 16229 ft | 397 kts | 49° |
| 2026-05-05 11:36 | 34.44854 | 128.24233 | 15979 ft | 396 kts | 49° |
| 2026-05-05 11:36 | 34.46639 | 128.26701 | 15675 ft | 392 kts | 49° |
| 2026-05-05 11:37 | 34.48449 | 128.29204 | 15120 ft | 388 kts | 49° |
| 2026-05-05 11:37 | 34.50226 | 128.31658 | 14579 ft | 386 kts | 49° |
| 2026-05-05 11:37 | 34.51967 | 128.34066 | 14029 ft | 384 kts | 49° |
| 2026-05-05 11:37 | 34.53725 | 128.36501 | 13429 ft | 382 kts | 49° |
| 2026-05-05 11:38 | 34.55475 | 128.38933 | 12717 ft | 383 kts | 49° |
| 2026-05-05 11:38 | 34.57217 | 128.41356 | 12177 ft | 379 kts | 49° |
| 2026-05-05 11:38 | 34.58942 | 128.43755 | 11610 ft | 376 kts | 49° |
| 2026-05-05 11:38 | 34.60653 | 128.46132 | 11056 ft | 372 kts | 49° |
| 2026-05-05 11:39 | 34.62361 | 128.48468 | 10665 ft | 365 kts | 45° |
| 2026-05-05 11:39 | 34.64268 | 128.50394 | 10542 ft | 350 kts | 33° |
| 2026-05-05 11:39 | 34.66333 | 128.51862 | 10422 ft | 337 kts | 29° |
| 2026-05-05 11:39 | 34.68344 | 128.53236 | 10302 ft | 326 kts | 29° |
| 2026-05-05 11:40 | 34.70290 | 128.54568 | 10183 ft | 316 kts | 29° |
| 2026-05-05 11:40 | 34.72176 | 128.55859 | 10032 ft | 307 kts | 29° |
| 2026-05-05 11:40 | 34.74029 | 128.57126 | 9754 ft | 304 kts | 29° |
| 2026-05-05 11:40 | 34.75863 | 128.58380 | 9443 ft | 302 kts | 29° |
| 2026-05-05 11:41 | 34.77688 | 128.59629 | 9108 ft | 300 kts | 29° |
| 2026-05-05 11:41 | 34.79497 | 128.60870 | 8810 ft | 298 kts | 29° |
| 2026-05-05 11:41 | 34.81296 | 128.62104 | 8510 ft | 296 kts | 29° |
| 2026-05-05 11:41 | 34.83087 | 128.63334 | 8201 ft | 294 kts | 29° |
| 2026-05-05 11:42 | 34.84862 | 128.64553 | 7927 ft | 292 kts | 29° |
| 2026-05-05 11:42 | 34.86624 | 128.65766 | 7634 ft | 290 kts | 29° |
| 2026-05-05 11:42 | 34.88377 | 128.66974 | 7333 ft | 289 kts | 29° |
| 2026-05-05 11:42 | 34.90107 | 128.68165 | 7193 ft | 281 kts | 29° |
| 2026-05-05 11:43 | 34.91784 | 128.69318 | 7079 ft | 273 kts | 29° |
| 2026-05-05 11:43 | 34.93415 | 128.70439 | 6972 ft | 266 kts | 29° |
| 2026-05-05 11:43 | 34.95001 | 128.71531 | 6836 ft | 258 kts | 29° |
| 2026-05-05 11:43 | 34.96536 | 128.72590 | 6712 ft | 249 kts | 29° |
| 2026-05-05 11:44 | 34.98022 | 128.73614 | 6575 ft | 242 kts | 29° |
| 2026-05-05 11:44 | 34.99466 | 128.74608 | 6432 ft | 234 kts | 29° |
| 2026-05-05 11:44 | 35.00819 | 128.75575 | 6269 ft | 223 kts | 33° |
| 2026-05-05 11:44 | 35.02068 | 128.76657 | 5945 ft | 219 kts | 37° |
| 2026-05-05 11:45 | 35.03269 | 128.77776 | 5590 ft | 217 kts | 37° |
| 2026-05-05 11:45 | 35.04450 | 128.78894 | 5157 ft | 213 kts | 37° |
| 2026-05-05 11:45 | 35.05607 | 128.79994 | 4704 ft | 205 kts | 37° |
| 2026-05-05 11:45 | 35.06205 | 128.80563 | 4645 ft | 189 kts | 37° |
| 2026-05-05 11:47 | 35.06598 | 128.80947 | 4526 ft | 182 kts | 38° |
| 2026-05-05 11:47 | 35.07527 | 128.81838 | 4292 ft | 162 kts | 36° |
| 2026-05-05 11:48 | 35.09267 | 128.83471 | 3559 ft | 156 kts | 36° |
| 2026-05-05 11:48 | 35.10128 | 128.84275 | 3153 ft | 156 kts | 36° |
| 2026-05-05 11:48 | 35.10993 | 128.85081 | 2763 ft | 157 kts | 36° |
| 2026-05-05 11:49 | 35.11861 | 128.85898 | 2403 ft | 157 kts | 37° |
| 2026-05-05 11:49 | 35.12722 | 128.86710 | 2026 ft | 156 kts | 38° |
| 2026-05-05 11:49 | 35.13568 | 128.87516 | 1683 ft | 153 kts | 38° |
| 2026-05-05 11:49 | 35.14405 | 128.88311 | 1671 ft | 154 kts | 38° |
| 2026-05-05 11:50 | 35.15251 | 128.89116 | 1677 ft | 154 kts | 37° |
| 2026-05-05 11:50 | 35.16169 | 128.89854 | 1619 ft | 159 kts | 21° |
| 2026-05-05 11:50 | 35.17215 | 128.90123 | 1636 ft | 155 kts | 352° |
| 2026-05-05 11:50 | 35.18278 | 128.89990 | 1600 ft | 154 kts | 349° |
| 2026-05-05 11:51 | 35.19340 | 128.89879 | 1432 ft | 153 kts | 352° |
| 2026-05-05 11:51 | 35.20400 | 128.89851 | 1277 ft | 154 kts | 6° |
| 2026-05-05 11:51 | 35.21384 | 128.90331 | 1184 ft | 152 kts | 42° |
| 2026-05-05 11:51 | 35.21890 | 128.91427 | 1024 ft | 147 kts | 88° |
| 2026-05-05 11:52 | 35.21607 | 128.92569 | 790 ft | 140 kts | 127° |
| 2026-05-05 11:52 | 35.20873 | 128.93308 | 530 ft | 138 kts | 167° |
| 2026-05-05 11:52 | 35.19940 | 128.93445 | 321 ft | 136 kts | 174° |
| 2026-05-05 11:52 | 35.19000 | 128.93562 | 105 ft | 136 kts | 176° |
| 2026-05-05 11:53 | 35.18112 | 128.93676 | 23 ft | 114 kts | 173° |
| 2026-05-05 11:53 | 35.17606 | 128.93741 | 26 ft | 33 kts | 174° |
| 2026-05-05 11:53 | 35.12393 | 128.86400 | 2159 ft | 156 kts | 37° |
| 2026-05-05 11:53 | 35.21536 | 128.90512 | 1169 ft | 152 kts | 51° |
| 2026-05-05 11:54 | 35.21893 | 128.91660 | 992 ft | 146 kts | 97° |
| 2026-05-05 11:54 | 35.21500 | 128.92751 | 727 ft | 140 kts | 130° |
| 2026-05-05 11:54 | 35.20709 | 128.93349 | 486 ft | 137 kts | 174° |
| 2026-05-05 11:54 | 35.19767 | 128.93469 | 291 ft | 137 kts | 177° |
| 2026-05-05 11:55 | 35.18823 | 128.93583 | 57 ft | 136 kts | 175° |
| 2026-05-05 11:55 | 35.17971 | 128.93693 | 23 ft | 100 kts | 175° |
| 2026-05-05 11:55 | 35.17563 | 128.93746 | 26 ft | 33 kts | 175° |
| 2026-05-05 11:55 | 35.17336 | 128.93772 | 28 ft | 32 kts | 174° |